createdAt,value
2023-02-13T00:01:53.409Z,16.00
2023-02-13T00:04:38.194Z,15.47
2023-02-13T00:07:23.375Z,17.20
2023-02-13T00:10:08.956Z,15.63
2023-02-13T00:12:53.884Z,17.02
2023-02-13T00:15:38.859Z,17.92
2023-02-13T00:18:25.461Z,18.40
2023-02-13T00:21:12.549Z,18.13
2023-02-13T00:23:57.289Z,16.33
2023-02-13T00:26:42.262Z,18.73
2023-02-13T00:29:27.373Z,16.63
2023-02-13T00:32:12.305Z,17.70
2023-02-13T00:34:58.030Z,11.40
2023-02-13T00:37:43.216Z,14.60
2023-02-13T00:40:28.381Z,16.08
2023-02-13T00:43:13.277Z,15.23
2023-02-13T00:45:59.000Z,14.63
2023-02-13T00:48:44.271Z,12.13
2023-02-13T00:51:29.316Z,14.93
2023-02-13T00:54:14.392Z,13.82
2023-02-13T00:56:59.510Z,12.38
2023-02-13T00:59:44.437Z,13.63
2023-02-13T01:02:29.661Z,14.65
2023-02-13T01:05:14.540Z,11.77
2023-02-13T01:07:59.486Z,11.52
2023-02-13T01:10:46.425Z,13.40
2023-02-13T01:13:31.212Z,14.30
2023-02-13T01:16:17.779Z,16.10
2023-02-13T01:19:02.674Z,15.13
2023-02-13T01:21:47.915Z,7.30
2023-02-13T01:24:33.124Z,13.85
2023-02-13T01:27:18.268Z,14.37
2023-02-13T01:30:04.333Z,12.73
2023-02-13T01:32:49.324Z,12.38
2023-02-13T01:35:34.207Z,13.85
2023-02-13T01:38:19.485Z,12.10
2023-02-13T01:41:04.644Z,14.53
2023-02-13T01:43:53.353Z,13.27
2023-02-13T01:46:43.693Z,12.30
2023-02-13T01:49:28.502Z,9.82
2023-02-13T01:52:14.533Z,14.32
2023-02-13T01:54:59.681Z,12.33
2023-02-13T01:57:51.042Z,11.75
2023-02-13T02:00:37.988Z,13.93
2023-02-13T02:03:26.238Z,13.23
2023-02-13T02:06:16.652Z,15.50
2023-02-13T02:09:05.853Z,12.57
2023-02-13T02:12:07.653Z,11.35
2023-02-13T02:14:57.837Z,11.73
2023-02-13T02:17:42.826Z,10.52
2023-02-13T02:20:58.951Z,14.88
2023-02-13T02:23:53.035Z,10.37
2023-02-13T02:26:50.925Z,12.85
2023-02-13T02:29:55.073Z,11.38
2023-02-13T02:33:09.661Z,10.93
2023-02-13T02:36:25.915Z,12.80
2023-02-13T02:39:29.507Z,11.67
2023-02-13T02:42:29.366Z,11.50
2023-02-13T02:45:38.474Z,11.15
2023-02-13T02:48:52.340Z,11.50
2023-02-13T02:52:04.960Z,13.00
2023-02-13T02:55:07.919Z,14.57
2023-02-13T02:58:22.631Z,12.73
2023-02-13T03:01:32.432Z,11.63
2023-02-13T03:04:45.477Z,12.07
2023-02-13T03:07:31.883Z,11.70
2023-02-13T03:10:46.250Z,11.93
2023-02-13T03:13:38.680Z,11.88
2023-02-13T03:16:44.037Z,12.45
2023-02-13T03:20:05.454Z,14.10
2023-02-13T03:23:04.540Z,13.27
2023-02-13T03:26:11.649Z,11.93
2023-02-13T03:29:33.005Z,13.52
2023-02-13T03:32:28.653Z,11.38
2023-02-13T03:35:38.263Z,15.02
2023-02-13T03:38:29.870Z,14.95
2023-02-13T03:41:26.533Z,17.30
2023-02-13T03:44:31.094Z,13.32
2023-02-13T03:47:16.228Z,14.35
2023-02-13T03:50:05.926Z,13.52
2023-02-13T03:52:55.688Z,12.90
2023-02-13T03:56:04.597Z,13.47
2023-02-13T03:59:13.045Z,13.93
2023-02-13T04:02:10.409Z,12.02
2023-02-13T04:05:10.869Z,13.75
2023-02-13T04:07:55.760Z,13.93
2023-02-13T04:10:57.071Z,14.90
2023-02-13T04:13:49.685Z,14.40
2023-02-13T04:16:40.354Z,14.55
2023-02-13T04:19:26.611Z,14.27
2023-02-13T04:22:12.401Z,15.65
2023-02-13T04:24:57.233Z,13.77
2023-02-13T04:27:42.526Z,12.38
2023-02-13T04:30:27.578Z,15.48
2023-02-13T04:33:12.413Z,15.38
2023-02-13T04:35:57.447Z,13.20
2023-02-13T04:38:42.496Z,14.33
2023-02-13T04:41:27.377Z,17.30
2023-02-13T04:44:12.407Z,12.93
2023-02-13T04:46:57.231Z,13.27
2023-02-13T04:49:42.020Z,16.88
2023-02-13T04:52:27.144Z,13.40
2023-02-13T04:55:12.364Z,13.93
2023-02-13T04:57:57.282Z,14.68
2023-02-13T05:00:42.074Z,15.70
2023-02-13T05:03:27.361Z,15.65
2023-02-13T05:06:12.256Z,15.00
2023-02-13T05:08:57.489Z,15.57
2023-02-13T05:11:42.348Z,15.23
2023-02-13T05:14:27.499Z,14.27
2023-02-13T05:17:12.242Z,13.88
2023-02-13T05:19:57.345Z,14.13
2023-02-13T05:23:08.941Z,14.98
2023-02-13T05:25:54.099Z,15.95
2023-02-13T05:28:57.442Z,13.93
2023-02-13T05:31:42.497Z,15.63
2023-02-13T05:34:28.909Z,12.60
2023-02-13T05:37:15.030Z,17.10
2023-02-13T05:40:00.120Z,15.45
2023-02-13T05:42:45.038Z,11.80
2023-02-13T05:45:30.214Z,12.90
2023-02-13T05:48:15.433Z,13.90
2023-02-13T05:51:01.374Z,16.70
2023-02-13T05:53:46.403Z,13.93
2023-02-13T05:56:31.287Z,14.35
2023-02-13T05:59:16.211Z,13.93
2023-02-13T06:02:01.424Z,12.33
2023-02-13T06:04:46.261Z,13.95
2023-02-13T06:07:31.207Z,14.73
2023-02-13T06:10:16.390Z,13.63
2023-02-13T06:13:01.285Z,12.98
2023-02-13T06:15:46.365Z,11.17
2023-02-13T06:18:31.372Z,13.95
2023-02-13T06:21:16.366Z,15.32
2023-02-13T06:24:01.174Z,13.75
2023-02-13T06:26:46.094Z,16.08
2023-02-13T06:29:32.847Z,12.17
2023-02-13T06:32:17.999Z,14.60
2023-02-13T06:35:05.478Z,12.65
2023-02-13T06:37:50.641Z,15.98
2023-02-13T06:40:35.681Z,14.88
2023-02-13T06:43:20.900Z,14.67
2023-02-13T06:46:07.038Z,13.30
2023-02-13T06:48:52.086Z,16.98
2023-02-13T06:51:36.998Z,14.18
2023-02-13T06:54:29.219Z,12.55
2023-02-13T06:57:22.169Z,13.53
2023-02-13T07:00:07.849Z,17.13
2023-02-13T07:02:52.835Z,18.83
2023-02-13T07:05:41.994Z,17.85
2023-02-13T07:08:27.008Z,14.02
2023-02-13T07:11:23.033Z,16.83
2023-02-13T07:14:09.084Z,16.48
2023-02-13T07:16:53.946Z,16.02
2023-02-13T07:19:38.818Z,14.93
2023-02-13T07:22:23.774Z,14.82
2023-02-13T07:25:08.675Z,15.00
2023-02-13T07:27:53.725Z,16.58
2023-02-13T07:30:38.817Z,15.25
2023-02-13T07:33:24.426Z,15.95
2023-02-13T07:36:09.311Z,15.70
2023-02-13T07:38:54.536Z,13.47
2023-02-13T07:41:39.517Z,26.90
2023-02-13T07:44:24.714Z,24.30
2023-02-13T07:47:10.072Z,67.38
2023-02-13T07:49:55.117Z,38.72
2023-02-13T07:52:39.997Z,23.40
2023-02-13T07:55:26.197Z,18.35
2023-02-13T07:58:11.693Z,19.17
2023-02-13T08:00:56.596Z,15.15
2023-02-13T08:03:41.605Z,13.80
2023-02-13T08:06:26.422Z,15.73
2023-02-13T08:09:38.953Z,15.88
2023-02-13T08:12:24.517Z,15.52
2023-02-13T08:15:11.899Z,15.23
2023-02-13T08:17:56.896Z,17.48
2023-02-13T08:20:41.618Z,14.97
2023-02-13T08:23:26.850Z,14.25
2023-02-13T08:26:11.463Z,14.55
2023-02-13T08:28:56.477Z,10.68
2023-02-13T08:31:41.654Z,13.23
2023-02-13T08:34:26.954Z,14.93
2023-02-13T08:37:11.874Z,12.88
2023-02-13T08:39:57.111Z,11.18
2023-02-13T08:42:42.265Z,10.45
2023-02-13T08:45:27.345Z,13.25
2023-02-13T08:48:12.214Z,9.47
2023-02-13T08:50:57.520Z,12.73
2023-02-13T08:53:42.827Z,7.07
2023-02-13T08:56:28.067Z,7.05
2023-02-13T08:59:12.865Z,16.77
2023-02-13T09:01:58.173Z,15.23
2023-02-13T09:04:43.281Z,7.43
2023-02-13T09:07:28.382Z,12.23
2023-02-13T09:10:13.351Z,8.20
2023-02-13T09:12:58.548Z,13.00
2023-02-13T09:15:43.716Z,12.77
2023-02-13T09:18:28.936Z,12.25
2023-02-13T09:21:14.512Z,8.75
2023-02-13T09:23:59.706Z,12.27
2023-02-13T09:26:44.602Z,12.30
2023-02-13T09:29:31.608Z,15.97
2023-02-13T09:32:16.963Z,14.05
2023-02-13T09:35:02.079Z,10.38
2023-02-13T09:37:46.945Z,14.98
2023-02-13T09:40:59.684Z,14.80
2023-02-13T09:44:02.963Z,14.10
2023-02-13T09:46:48.321Z,14.52
2023-02-13T09:49:38.613Z,20.75
2023-02-13T09:52:33.542Z,14.27
2023-02-13T09:55:21.979Z,14.30
2023-02-13T09:58:20.561Z,9.67
2023-02-13T10:01:17.205Z,15.13
2023-02-13T10:04:19.338Z,15.82
2023-02-13T10:07:16.843Z,22.95
2023-02-13T10:10:18.103Z,11.95
2023-02-13T10:13:23.385Z,11.17
2023-02-13T10:16:28.141Z,15.70
2023-02-13T10:19:28.240Z,20.55
2023-02-13T10:22:23.377Z,14.45
2023-02-13T10:25:33.742Z,16.15
2023-02-13T10:28:39.216Z,12.77
2023-02-13T10:31:24.486Z,12.30
2023-02-13T10:34:16.985Z,15.88
2023-02-13T10:37:02.507Z,15.02
2023-02-13T10:39:49.898Z,17.08
2023-02-13T10:43:04.993Z,11.37
2023-02-13T10:46:04.674Z,13.95
2023-02-13T10:49:01.690Z,8.82
2023-02-13T10:52:10.675Z,12.50
2023-02-13T10:55:14.219Z,11.68
2023-02-13T10:58:18.712Z,11.63
2023-02-13T11:01:19.594Z,10.90
2023-02-13T11:04:08.424Z,10.52
2023-02-13T11:07:00.363Z,10.25
2023-02-13T11:09:48.618Z,12.93
2023-02-13T11:12:34.410Z,12.97
2023-02-13T11:15:32.000Z,11.60
2023-02-13T11:18:22.007Z,9.88
2023-02-13T11:21:16.143Z,13.95
2023-02-13T11:24:01.579Z,14.15
2023-02-13T11:26:52.105Z,10.50
2023-02-13T11:29:50.493Z,10.25
2023-02-13T11:32:35.337Z,11.55
2023-02-13T11:35:40.530Z,8.85
2023-02-13T11:38:25.678Z,10.15
2023-02-13T11:41:18.363Z,10.43
2023-02-13T11:44:04.681Z,8.43
2023-02-13T11:46:52.056Z,7.63
2023-02-13T11:49:39.271Z,9.30
2023-02-13T11:52:27.917Z,7.68
2023-02-13T11:55:38.215Z,12.83
2023-02-13T11:58:25.410Z,13.85
2023-02-13T12:01:19.546Z,7.78
2023-02-13T12:04:17.715Z,9.13
2023-02-13T12:07:12.465Z,9.27
2023-02-13T12:10:06.109Z,11.07
2023-02-13T12:13:13.533Z,8.88
2023-02-13T12:16:02.508Z,8.68
2023-02-13T12:18:53.975Z,10.80
2023-02-13T12:22:06.075Z,7.20
2023-02-13T12:25:16.105Z,8.70
2023-02-13T12:28:30.689Z,6.18
2023-02-13T12:31:48.828Z,9.65
2023-02-13T12:34:41.546Z,7.30
2023-02-13T12:37:45.262Z,6.05
2023-02-13T12:40:58.074Z,8.40
2023-02-13T12:44:08.648Z,4.97
2023-02-13T12:47:06.353Z,6.18
2023-02-13T12:50:18.797Z,7.45
2023-02-13T12:53:15.521Z,7.18
2023-02-13T12:56:08.802Z,6.47
2023-02-13T12:59:27.019Z,6.00
2023-02-13T13:02:44.724Z,5.53
2023-02-13T13:06:08.910Z,6.22
2023-02-13T13:09:15.952Z,6.40
2023-02-13T13:12:33.620Z,6.53
2023-02-13T13:15:35.116Z,9.23
2023-02-13T13:18:36.994Z,4.13
2023-02-13T13:21:21.812Z,5.55
2023-02-13T13:24:48.997Z,5.63
2023-02-13T13:27:44.203Z,4.13
2023-02-13T13:30:35.348Z,10.32
2023-02-13T13:33:24.192Z,5.70
2023-02-13T13:36:09.509Z,6.32
2023-02-13T13:39:37.272Z,4.50
2023-02-13T13:42:31.386Z,4.27
2023-02-13T13:45:47.223Z,7.40
2023-02-13T13:48:55.347Z,4.72
2023-02-13T13:51:40.196Z,4.18
2023-02-13T13:54:33.673Z,5.05
2023-02-13T13:57:20.813Z,2.90
2023-02-13T14:00:08.856Z,4.72
2023-02-13T14:03:13.262Z,5.20
2023-02-13T14:06:00.174Z,4.70
2023-02-13T14:08:45.340Z,6.57
2023-02-13T14:11:34.118Z,4.67
2023-02-13T14:14:27.979Z,5.97
2023-02-13T14:17:15.621Z,4.03
2023-02-13T14:20:00.462Z,4.50
2023-02-13T14:22:45.558Z,4.32
2023-02-13T14:25:32.187Z,3.80
2023-02-13T14:28:23.071Z,5.97
2023-02-13T14:31:30.356Z,4.60
2023-02-13T14:34:23.004Z,6.25
2023-02-13T14:37:10.815Z,3.45
2023-02-13T14:40:17.517Z,4.97
2023-02-13T14:43:02.321Z,3.78
2023-02-13T14:46:03.308Z,2.65
2023-02-13T14:48:53.385Z,3.38
2023-02-13T14:51:46.963Z,3.08
2023-02-13T14:54:49.359Z,4.20
2023-02-13T14:57:41.686Z,4.80
2023-02-13T15:00:52.369Z,6.22
2023-02-13T15:03:40.238Z,5.18
2023-02-13T15:06:36.449Z,3.97
2023-02-13T15:09:41.265Z,4.93
2023-02-13T15:12:37.186Z,4.40
2023-02-13T15:15:26.287Z,2.17
2023-02-13T15:18:22.072Z,3.95
2023-02-13T15:21:14.700Z,4.75
2023-02-13T15:23:59.988Z,2.97
2023-02-13T15:26:50.612Z,2.70
2023-02-13T15:29:49.307Z,2.55
2023-02-13T15:32:40.100Z,3.33
2023-02-13T15:35:27.261Z,3.75
2023-02-13T15:38:27.641Z,2.70
2023-02-13T15:41:23.320Z,4.15
2023-02-13T15:44:17.709Z,2.40
2023-02-13T15:47:07.415Z,3.60
2023-02-13T15:49:53.006Z,4.63
2023-02-13T15:52:39.103Z,3.57
2023-02-13T15:55:28.253Z,4.45
2023-02-13T15:58:14.256Z,4.55
2023-02-13T16:01:08.877Z,4.18
2023-02-13T16:04:05.042Z,5.55
2023-02-13T16:06:51.993Z,4.90
2023-02-13T16:09:36.911Z,4.15
2023-02-13T16:12:28.616Z,3.88
2023-02-13T16:15:18.195Z,4.78
2023-02-13T16:18:06.135Z,5.10
2023-02-13T16:20:56.008Z,3.67
2023-02-13T16:23:44.874Z,6.80
2023-02-13T16:26:31.411Z,6.13
2023-02-13T16:29:22.580Z,5.53
2023-02-13T16:32:19.135Z,6.68
2023-02-13T16:35:27.223Z,6.10
2023-02-13T16:38:24.808Z,7.82
2023-02-13T16:41:18.826Z,6.65
2023-02-13T16:44:04.393Z,5.50
2023-02-13T16:46:53.698Z,7.07
2023-02-13T16:49:38.975Z,6.53
2023-02-13T16:52:26.579Z,7.25
2023-02-13T16:55:15.781Z,7.43
2023-02-13T16:58:07.185Z,8.40
2023-02-13T17:00:52.230Z,8.35
2023-02-13T17:03:37.225Z,7.73
2023-02-13T17:06:24.705Z,6.38
2023-02-13T17:09:09.900Z,6.05
2023-02-13T17:11:54.936Z,8.65
2023-02-13T17:14:40.018Z,7.93
2023-02-13T17:17:27.900Z,7.97
2023-02-13T17:20:18.136Z,8.82
2023-02-13T17:23:06.106Z,7.15
2023-02-13T17:25:53.648Z,7.50
2023-02-13T17:28:38.509Z,7.85
2023-02-13T17:31:23.647Z,8.37
2023-02-13T17:34:11.349Z,7.25
2023-02-13T17:36:56.468Z,9.23
2023-02-13T17:39:41.410Z,8.93
2023-02-13T17:42:29.358Z,8.68
2023-02-13T17:45:16.516Z,9.37
2023-02-13T17:48:01.670Z,11.23
2023-02-13T17:50:48.527Z,9.40
2023-02-13T17:53:34.330Z,8.73
2023-02-13T17:56:19.257Z,9.48
2023-02-13T17:59:04.203Z,9.33
2023-02-13T18:01:49.482Z,8.40
2023-02-13T18:04:34.620Z,9.38
2023-02-13T18:07:20.988Z,8.77
2023-02-13T18:10:13.207Z,8.52
2023-02-13T18:13:04.148Z,9.30
2023-02-13T18:15:49.184Z,8.93
2023-02-13T18:18:34.039Z,7.93
2023-02-13T18:21:22.615Z,10.25
2023-02-13T18:24:08.534Z,13.52
2023-02-13T18:26:56.034Z,10.70
2023-02-13T18:29:41.427Z,9.95
2023-02-13T18:32:26.797Z,15.25
2023-02-13T18:35:11.854Z,12.82
2023-02-13T18:37:57.031Z,15.43
2023-02-13T18:40:41.937Z,11.80
2023-02-13T18:43:27.053Z,13.90
2023-02-13T18:46:11.900Z,12.88
2023-02-13T18:48:56.952Z,12.85
2023-02-13T18:51:42.858Z,21.25
2023-02-13T18:54:28.315Z,17.47
2023-02-13T18:57:13.586Z,13.25
2023-02-13T18:59:58.500Z,20.08
2023-02-13T19:02:43.462Z,12.77
2023-02-13T19:05:28.445Z,15.32
2023-02-13T19:08:13.806Z,16.63
2023-02-13T19:11:00.223Z,13.88
2023-02-13T19:13:46.173Z,19.33
2023-02-13T19:16:33.793Z,13.02
2023-02-13T19:19:19.040Z,19.50
2023-02-13T19:22:04.021Z,15.50
2023-02-13T19:24:48.977Z,19.13
2023-02-13T19:27:37.196Z,13.15
2023-02-13T19:30:22.498Z,13.23
2023-02-13T19:33:07.634Z,13.35
2023-02-13T19:36:05.242Z,13.30
2023-02-13T19:38:58.119Z,12.40
2023-02-13T19:41:43.988Z,10.52
2023-02-13T19:44:29.113Z,10.25
2023-02-13T19:47:14.015Z,12.93
2023-02-13T19:49:59.032Z,10.33
2023-02-13T19:52:44.030Z,13.57
2023-02-13T19:55:29.085Z,9.75
2023-02-13T19:58:14.371Z,11.98
2023-02-13T20:01:13.561Z,10.75
2023-02-13T20:03:58.865Z,9.73
2023-02-13T20:06:44.401Z,11.50
2023-02-13T20:09:29.150Z,9.85
2023-02-13T20:12:14.041Z,9.80
2023-02-13T20:14:59.083Z,11.40
2023-02-13T20:17:43.981Z,12.53
2023-02-13T20:20:29.453Z,11.70
2023-02-13T20:23:16.795Z,9.55
2023-02-13T20:26:16.440Z,10.50
2023-02-13T20:29:02.058Z,10.80
2023-02-13T20:31:46.886Z,12.80
2023-02-13T20:34:44.280Z,9.45
2023-02-13T20:37:36.777Z,14.98
2023-02-13T20:40:21.663Z,11.30
2023-02-13T20:43:06.488Z,14.20
2023-02-13T20:45:51.715Z,10.67
2023-02-13T20:48:37.219Z,11.43
2023-02-13T20:51:21.976Z,13.65
2023-02-13T20:54:07.001Z,13.63
2023-02-13T20:56:51.936Z,11.63
2023-02-13T20:59:37.267Z,13.70
2023-02-13T21:02:22.054Z,16.63
2023-02-13T21:05:07.349Z,16.80
2023-02-13T21:07:52.522Z,16.08
2023-02-13T21:10:38.350Z,16.98
2023-02-13T21:13:23.946Z,15.80
2023-02-13T21:16:15.478Z,15.07
2023-02-13T21:19:05.250Z,19.75
2023-02-13T21:21:50.797Z,15.63
2023-02-13T21:24:35.671Z,21.35
2023-02-13T21:27:20.798Z,16.63
2023-02-13T21:30:06.491Z,16.15
2023-02-13T21:32:51.272Z,16.30
2023-02-13T21:35:36.304Z,16.95
2023-02-13T21:38:22.856Z,15.95
2023-02-13T21:41:10.794Z,14.90
2023-02-13T21:43:55.872Z,20.25
2023-02-13T21:46:42.201Z,15.85
2023-02-13T21:49:27.030Z,17.30
2023-02-13T21:52:12.132Z,16.50
2023-02-13T21:54:56.901Z,15.00
2023-02-13T21:57:41.716Z,16.67
2023-02-13T22:00:26.356Z,15.30
2023-02-13T22:03:11.312Z,13.82
2023-02-13T22:05:56.400Z,13.60
2023-02-13T22:08:41.505Z,13.47
2023-02-13T22:11:27.654Z,12.73
2023-02-13T22:14:16.940Z,12.88
2023-02-13T22:17:02.058Z,13.55
2023-02-13T22:19:47.218Z,13.27
2023-02-13T22:22:32.345Z,13.17
2023-02-13T22:25:17.436Z,12.95
2023-02-13T22:28:02.231Z,13.70
2023-02-13T22:30:47.298Z,18.80
2023-02-13T22:33:33.710Z,13.35
2023-02-13T22:36:22.006Z,12.30
2023-02-13T22:39:09.105Z,15.85
2023-02-13T22:41:57.289Z,14.50
2023-02-13T22:44:42.034Z,13.30
2023-02-13T22:47:29.993Z,11.43
2023-02-13T22:50:15.526Z,17.10
2023-02-13T22:53:00.679Z,13.23
2023-02-13T22:55:45.622Z,11.40
2023-02-13T22:58:30.782Z,11.02
2023-02-13T23:01:19.931Z,11.60
2023-02-13T23:04:05.359Z,12.30
2023-02-13T23:06:50.334Z,12.35
2023-02-13T23:09:35.334Z,10.77
2023-02-13T23:12:40.114Z,11.32
2023-02-13T23:15:25.175Z,12.32
2023-02-13T23:18:13.930Z,14.23
2023-02-13T23:21:05.042Z,11.40
2023-02-13T23:23:50.405Z,10.80
2023-02-13T23:26:35.404Z,11.00
2023-02-13T23:29:20.946Z,12.20
2023-02-13T23:32:05.927Z,13.00
2023-02-13T23:34:50.994Z,8.90
2023-02-13T23:37:36.679Z,9.55
2023-02-13T23:40:21.722Z,11.43
2023-02-13T23:43:06.805Z,10.05
2023-02-13T23:45:51.873Z,11.10
2023-02-13T23:48:36.810Z,11.45
2023-02-13T23:51:23.022Z,15.23
2023-02-13T23:54:08.536Z,13.88
2023-02-13T23:56:54.797Z,9.95
2023-02-13T23:59:39.765Z,12.10
